sensor_id;sensor_type;location;lat;lon;timestamp;P1;durP1;ratioP1;P2;durP2;ratioP2
17614;SDS011;8926;49.720;6.576;2023-04-25T00:00:31;3.47;;;3.27;;
17614;SDS011;8926;49.720;6.576;2023-04-25T00:02:59;5.80;;;5.40;;
17614;SDS011;8926;49.720;6.576;2023-04-25T00:05:25;4.63;;;4.33;;
17614;SDS011;8926;49.720;6.576;2023-04-25T00:07:51;4.57;;;4.20;;
17614;SDS011;8926;49.720;6.576;2023-04-25T00:10:18;3.67;;;3.47;;
17614;SDS011;8926;49.720;6.576;2023-04-25T00:12:45;3.73;;;3.53;;
17614;SDS011;8926;49.720;6.576;2023-04-25T00:15:10;4.13;;;3.83;;
17614;SDS011;8926;49.720;6.576;2023-04-25T00:17:36;5.10;;;4.80;;
17614;SDS011;8926;49.720;6.576;2023-04-25T00:20:03;4.53;;;4.23;;
17614;SDS011;8926;49.720;6.576;2023-04-25T00:22:35;4.57;;;4.27;;
17614;SDS011;8926;49.720;6.576;2023-04-25T00:25:02;4.00;;;3.80;;
17614;SDS011;8926;49.720;6.576;2023-04-25T00:27:31;3.63;;;3.43;;
17614;SDS011;8926;49.720;6.576;2023-04-25T00:29:57;3.87;;;3.67;;
17614;SDS011;8926;49.720;6.576;2023-04-25T00:32:22;4.47;;;4.17;;
17614;SDS011;8926;49.720;6.576;2023-04-25T00:34:48;4.07;;;3.87;;
17614;SDS011;8926;49.720;6.576;2023-04-25T00:37:13;3.80;;;3.60;;
17614;SDS011;8926;49.720;6.576;2023-04-25T00:39:38;5.03;;;4.73;;
17614;SDS011;8926;49.720;6.576;2023-04-25T00:42:04;4.77;;;4.43;;
17614;SDS011;8926;49.720;6.576;2023-04-25T00:44:30;4.70;;;4.40;;
17614;SDS011;8926;49.720;6.576;2023-04-25T00:46:57;5.67;;;5.37;;
17614;SDS011;8926;49.720;6.576;2023-04-25T00:49:22;6.10;;;5.70;;
17614;SDS011;8926;49.720;6.576;2023-04-25T00:51:48;5.27;;;4.87;;
17614;SDS011;8926;49.720;6.576;2023-04-25T00:54:13;4.43;;;4.13;;
17614;SDS011;8926;49.720;6.576;2023-04-25T00:56:39;4.77;;;4.47;;
17614;SDS011;8926;49.720;6.576;2023-04-25T00:59:05;5.70;;;5.30;;
17614;SDS011;8926;49.720;6.576;2023-04-25T01:01:30;5.10;;;4.70;;
17614;SDS011;8926;49.720;6.576;2023-04-25T01:03:56;5.07;;;4.77;;
17614;SDS011;8926;49.720;6.576;2023-04-25T01:06:23;4.27;;;3.97;;
17614;SDS011;8926;49.720;6.576;2023-04-25T01:08:49;4.40;;;4.10;;
17614;SDS011;8926;49.720;6.576;2023-04-25T01:11:14;3.90;;;3.70;;
17614;SDS011;8926;49.720;6.576;2023-04-25T01:13:40;3.70;;;3.50;;
17614;SDS011;8926;49.720;6.576;2023-04-25T01:16:05;3.70;;;3.50;;
17614;SDS011;8926;49.720;6.576;2023-04-25T01:18:31;3.70;;;3.50;;
17614;SDS011;8926;49.720;6.576;2023-04-25T01:20:56;3.57;;;3.37;;
17614;SDS011;8926;49.720;6.576;2023-04-25T01:23:31;4.50;;;4.20;;
17614;SDS011;8926;49.720;6.576;2023-04-25T01:25:58;3.80;;;3.60;;
17614;SDS011;8926;49.720;6.576;2023-04-25T01:28:23;4.83;;;4.53;;
17614;SDS011;8926;49.720;6.576;2023-04-25T01:30:49;4.03;;;3.83;;
17614;SDS011;8926;49.720;6.576;2023-04-25T01:33:15;4.13;;;3.93;;
17614;SDS011;8926;49.720;6.576;2023-04-25T01:35:42;3.90;;;3.70;;
17614;SDS011;8926;49.720;6.576;2023-04-25T01:38:07;4.10;;;3.90;;
17614;SDS011;8926;49.720;6.576;2023-04-25T01:40:33;3.80;;;3.60;;
17614;SDS011;8926;49.720;6.576;2023-04-25T01:42:59;3.80;;;3.60;;
17614;SDS011;8926;49.720;6.576;2023-04-25T01:45:24;3.87;;;3.67;;
17614;SDS011;8926;49.720;6.576;2023-04-25T01:47:50;4.90;;;4.60;;
17614;SDS011;8926;49.720;6.576;2023-04-25T01:50:16;4.40;;;4.10;;
17614;SDS011;8926;49.720;6.576;2023-04-25T01:52:42;4.23;;;4.00;;
17614;SDS011;8926;49.720;6.576;2023-04-25T01:55:08;4.50;;;4.20;;
17614;SDS011;8926;49.720;6.576;2023-04-25T01:57:33;4.60;;;4.30;;
17614;SDS011;8926;49.720;6.576;2023-04-25T02:00:00;5.07;;;4.77;;
17614;SDS011;8926;49.720;6.576;2023-04-25T02:02:27;5.30;;;5.00;;
17614;SDS011;8926;49.720;6.576;2023-04-25T02:04:53;4.60;;;4.30;;
17614;SDS011;8926;49.720;6.576;2023-04-25T02:07:19;4.60;;;4.30;;
17614;SDS011;8926;49.720;6.576;2023-04-25T02:09:44;4.30;;;4.00;;
17614;SDS011;8926;49.720;6.576;2023-04-25T02:12:10;5.10;;;4.80;;
17614;SDS011;8926;49.720;6.576;2023-04-25T02:14:36;5.17;;;4.87;;
17614;SDS011;8926;49.720;6.576;2023-04-25T02:17:01;5.10;;;4.80;;
17614;SDS011;8926;49.720;6.576;2023-04-25T02:19:26;5.47;;;5.17;;
17614;SDS011;8926;49.720;6.576;2023-04-25T02:21:52;5.17;;;4.87;;
17614;SDS011;8926;49.720;6.576;2023-04-25T02:24:22;4.80;;;4.50;;
17614;SDS011;8926;49.720;6.576;2023-04-25T02:26:47;5.93;;;5.53;;
17614;SDS011;8926;49.720;6.576;2023-04-25T02:29:14;5.80;;;5.40;;
17614;SDS011;8926;49.720;6.576;2023-04-25T02:31:40;6.80;;;6.30;;
17614;SDS011;8926;49.720;6.576;2023-04-25T02:34:05;6.43;;;6.03;;
17614;SDS011;8926;49.720;6.576;2023-04-25T02:36:30;5.70;;;5.30;;
17614;SDS011;8926;49.720;6.576;2023-04-25T02:38:59;5.33;;;4.97;;
17614;SDS011;8926;49.720;6.576;2023-04-25T02:41:25;4.50;;;4.30;;
17614;SDS011;8926;49.720;6.576;2023-04-25T02:43:50;5.37;;;5.07;;
17614;SDS011;8926;49.720;6.576;2023-04-25T02:46:15;4.70;;;4.40;;
17614;SDS011;8926;49.720;6.576;2023-04-25T02:48:41;6.47;;;6.03;;
17614;SDS011;8926;49.720;6.576;2023-04-25T02:51:06;5.80;;;5.47;;
17614;SDS011;8926;49.720;6.576;2023-04-25T02:53:31;7.17;;;6.57;;
17614;SDS011;8926;49.720;6.576;2023-04-25T02:55:56;8.43;;;7.73;;
17614;SDS011;8926;49.720;6.576;2023-04-25T02:58:23;9.10;;;8.50;;
17614;SDS011;8926;49.720;6.576;2023-04-25T03:00:48;6.80;;;6.40;;
17614;SDS011;8926;49.720;6.576;2023-04-25T03:03:14;6.43;;;6.03;;
17614;SDS011;8926;49.720;6.576;2023-04-25T03:05:42;5.57;;;5.23;;
17614;SDS011;8926;49.720;6.576;2023-04-25T03:08:08;6.60;;;6.10;;
17614;SDS011;8926;49.720;6.576;2023-04-25T03:10:33;5.80;;;5.37;;
17614;SDS011;8926;49.720;6.576;2023-04-25T03:12:58;5.50;;;5.10;;
17614;SDS011;8926;49.720;6.576;2023-04-25T03:15:23;6.50;;;6.03;;
17614;SDS011;8926;49.720;6.576;2023-04-25T03:17:49;5.80;;;5.40;;
17614;SDS011;8926;49.720;6.576;2023-04-25T03:20:14;6.40;;;6.00;;
17614;SDS011;8926;49.720;6.576;2023-04-25T03:22:39;6.17;;;5.77;;
17614;SDS011;8926;49.720;6.576;2023-04-25T03:25:05;6.43;;;6.03;;
17614;SDS011;8926;49.720;6.576;2023-04-25T03:27:30;6.80;;;6.30;;
17614;SDS011;8926;49.720;6.576;2023-04-25T03:29:56;7.27;;;6.77;;
17614;SDS011;8926;49.720;6.576;2023-04-25T03:32:21;7.43;;;6.93;;
17614;SDS011;8926;49.720;6.576;2023-04-25T03:34:46;7.50;;;7.00;;
17614;SDS011;8926;49.720;6.576;2023-04-25T03:37:11;7.10;;;6.60;;
17614;SDS011;8926;49.720;6.576;2023-04-25T03:39:37;8.27;;;7.57;;
17614;SDS011;8926;49.720;6.576;2023-04-25T03:42:03;7.40;;;6.90;;
17614;SDS011;8926;49.720;6.576;2023-04-25T03:44:28;7.40;;;6.70;;
17614;SDS011;8926;49.720;6.576;2023-04-25T03:46:54;6.37;;;5.97;;
17614;SDS011;8926;49.720;6.576;2023-04-25T03:49:19;5.63;;;5.23;;
17614;SDS011;8926;49.720;6.576;2023-04-25T03:51:44;6.00;;;5.60;;
17614;SDS011;8926;49.720;6.576;2023-04-25T03:54:10;6.67;;;6.17;;
17614;SDS011;8926;49.720;6.576;2023-04-25T03:56:35;6.60;;;6.20;;
17614;SDS011;8926;49.720;6.576;2023-04-25T03:59:00;6.70;;;6.30;;
17614;SDS011;8926;49.720;6.576;2023-04-25T04:01:26;5.50;;;5.10;;
17614;SDS011;8926;49.720;6.576;2023-04-25T04:03:51;6.43;;;5.97;;
17614;SDS011;8926;49.720;6.576;2023-04-25T04:06:16;5.20;;;4.90;;
17614;SDS011;8926;49.720;6.576;2023-04-25T04:08:42;6.30;;;5.90;;
17614;SDS011;8926;49.720;6.576;2023-04-25T04:11:07;5.67;;;5.27;;
17614;SDS011;8926;49.720;6.576;2023-04-25T04:13:32;4.90;;;4.60;;
17614;SDS011;8926;49.720;6.576;2023-04-25T04:15:58;4.70;;;4.40;;
17614;SDS011;8926;49.720;6.576;2023-04-25T04:18:23;4.20;;;3.90;;
17614;SDS011;8926;49.720;6.576;2023-04-25T04:20:48;3.97;;;3.77;;
17614;SDS011;8926;49.720;6.576;2023-04-25T04:23:14;4.30;;;4.10;;
17614;SDS011;8926;49.720;6.576;2023-04-25T04:25:40;5.23;;;4.83;;
17614;SDS011;8926;49.720;6.576;2023-04-25T04:28:05;5.53;;;5.13;;
17614;SDS011;8926;49.720;6.576;2023-04-25T04:30:32;4.53;;;4.23;;
17614;SDS011;8926;49.720;6.576;2023-04-25T04:32:58;4.27;;;4.07;;
17614;SDS011;8926;49.720;6.576;2023-04-25T04:35:25;3.47;;;3.27;;
17614;SDS011;8926;49.720;6.576;2023-04-25T04:37:51;3.67;;;3.47;;
17614;SDS011;8926;49.720;6.576;2023-04-25T04:40:16;4.00;;;3.70;;
17614;SDS011;8926;49.720;6.576;2023-04-25T04:42:42;4.30;;;4.00;;
17614;SDS011;8926;49.720;6.576;2023-04-25T04:45:10;4.90;;;4.60;;
17614;SDS011;8926;49.720;6.576;2023-04-25T04:47:36;4.67;;;4.37;;
17614;SDS011;8926;49.720;6.576;2023-04-25T04:50:01;4.87;;;4.57;;
17614;SDS011;8926;49.720;6.576;2023-04-25T04:52:28;4.57;;;4.27;;
17614;SDS011;8926;49.720;6.576;2023-04-25T04:54:53;3.83;;;3.63;;
17614;SDS011;8926;49.720;6.576;2023-04-25T04:57:18;4.73;;;4.43;;
17614;SDS011;8926;49.720;6.576;2023-04-25T04:59:44;4.57;;;4.17;;
17614;SDS011;8926;49.720;6.576;2023-04-25T05:02:09;4.63;;;4.33;;
17614;SDS011;8926;49.720;6.576;2023-04-25T05:04:35;4.00;;;3.70;;
17614;SDS011;8926;49.720;6.576;2023-04-25T05:07:00;3.33;;;3.13;;
17614;SDS011;8926;49.720;6.576;2023-04-25T05:09:26;3.73;;;3.53;;
17614;SDS011;8926;49.720;6.576;2023-04-25T05:11:51;3.47;;;3.27;;
17614;SDS011;8926;49.720;6.576;2023-04-25T05:14:17;3.33;;;3.13;;
17614;SDS011;8926;49.720;6.576;2023-04-25T05:16:43;3.20;;;3.00;;
17614;SDS011;8926;49.720;6.576;2023-04-25T05:19:09;3.00;;;2.80;;
17614;SDS011;8926;49.720;6.576;2023-04-25T05:21:34;2.50;;;2.40;;
17614;SDS011;8926;49.720;6.576;2023-04-25T05:24:00;2.70;;;2.60;;
17614;SDS011;8926;49.720;6.576;2023-04-25T05:26:26;2.73;;;2.53;;
17614;SDS011;8926;49.720;6.576;2023-04-25T05:28:55;3.00;;;2.80;;
17614;SDS011;8926;49.720;6.576;2023-04-25T05:31:21;2.57;;;2.47;;
17614;SDS011;8926;49.720;6.576;2023-04-25T05:33:46;2.60;;;2.50;;
17614;SDS011;8926;49.720;6.576;2023-04-25T05:36:11;2.93;;;2.73;;
17614;SDS011;8926;49.720;6.576;2023-04-25T05:38:36;2.90;;;2.70;;
17614;SDS011;8926;49.720;6.576;2023-04-25T05:41:02;2.50;;;2.40;;
17614;SDS011;8926;49.720;6.576;2023-04-25T05:43:27;2.37;;;2.27;;
17614;SDS011;8926;49.720;6.576;2023-04-25T05:45:52;3.13;;;2.93;;
17614;SDS011;8926;49.720;6.576;2023-04-25T05:48:18;3.00;;;2.80;;
17614;SDS011;8926;49.720;6.576;2023-04-25T05:50:43;3.50;;;3.30;;
17614;SDS011;8926;49.720;6.576;2023-04-25T05:53:08;4.00;;;3.70;;
17614;SDS011;8926;49.720;6.576;2023-04-25T05:55:34;6.60;;;6.00;;
17614;SDS011;8926;49.720;6.576;2023-04-25T05:57:59;7.17;;;6.40;;
17614;SDS011;8926;49.720;6.576;2023-04-25T06:00:25;14.13;;;11.23;;
17614;SDS011;8926;49.720;6.576;2023-04-25T06:02:50;11.30;;;10.20;;
17614;SDS011;8926;49.720;6.576;2023-04-25T06:05:16;8.10;;;7.27;;
17614;SDS011;8926;49.720;6.576;2023-04-25T06:07:41;5.63;;;5.23;;
17614;SDS011;8926;49.720;6.576;2023-04-25T06:10:07;4.97;;;4.57;;
17614;SDS011;8926;49.720;6.576;2023-04-25T06:12:32;4.80;;;4.50;;
17614;SDS011;8926;49.720;6.576;2023-04-25T06:14:58;4.80;;;4.50;;
17614;SDS011;8926;49.720;6.576;2023-04-25T06:17:24;5.47;;;5.17;;
17614;SDS011;8926;49.720;6.576;2023-04-25T06:19:49;4.93;;;4.63;;
17614;SDS011;8926;49.720;6.576;2023-04-25T06:22:14;5.03;;;4.73;;
17614;SDS011;8926;49.720;6.576;2023-04-25T06:24:40;3.47;;;3.27;;
17614;SDS011;8926;49.720;6.576;2023-04-25T06:27:05;4.07;;;3.77;;
17614;SDS011;8926;49.720;6.576;2023-04-25T06:29:30;3.40;;;3.20;;
17614;SDS011;8926;49.720;6.576;2023-04-25T06:31:56;4.30;;;4.00;;
17614;SDS011;8926;49.720;6.576;2023-04-25T06:34:22;3.97;;;3.77;;
17614;SDS011;8926;49.720;6.576;2023-04-25T06:36:47;4.03;;;3.73;;
17614;SDS011;8926;49.720;6.576;2023-04-25T06:39:12;4.80;;;4.50;;
17614;SDS011;8926;49.720;6.576;2023-04-25T06:41:38;5.37;;;4.97;;
17614;SDS011;8926;49.720;6.576;2023-04-25T06:44:03;4.53;;;4.23;;
17614;SDS011;8926;49.720;6.576;2023-04-25T06:46:28;4.13;;;3.93;;
17614;SDS011;8926;49.720;6.576;2023-04-25T06:48:54;4.97;;;4.57;;
17614;SDS011;8926;49.720;6.576;2023-04-25T06:51:20;4.23;;;3.90;;
17614;SDS011;8926;49.720;6.576;2023-04-25T06:53:45;4.07;;;3.77;;
17614;SDS011;8926;49.720;6.576;2023-04-25T06:56:10;3.90;;;3.60;;
17614;SDS011;8926;49.720;6.576;2023-04-25T06:58:35;2.93;;;2.73;;
17614;SDS011;8926;49.720;6.576;2023-04-25T07:01:01;3.70;;;3.40;;
17614;SDS011;8926;49.720;6.576;2023-04-25T07:03:26;3.47;;;3.17;;
17614;SDS011;8926;49.720;6.576;2023-04-25T07:05:51;3.63;;;3.43;;
17614;SDS011;8926;49.720;6.576;2023-04-25T07:08:17;3.60;;;3.30;;
17614;SDS011;8926;49.720;6.576;2023-04-25T07:10:42;3.30;;;3.10;;
17614;SDS011;8926;49.720;6.576;2023-04-25T07:13:08;3.20;;;3.00;;
17614;SDS011;8926;49.720;6.576;2023-04-25T07:15:33;3.27;;;3.07;;
17614;SDS011;8926;49.720;6.576;2023-04-25T07:17:58;2.97;;;2.77;;
17614;SDS011;8926;49.720;6.576;2023-04-25T07:20:24;2.97;;;2.70;;
17614;SDS011;8926;49.720;6.576;2023-04-25T07:22:49;3.10;;;2.90;;
17614;SDS011;8926;49.720;6.576;2023-04-25T07:25:15;2.30;;;2.20;;
17614;SDS011;8926;49.720;6.576;2023-04-25T07:27:41;3.27;;;3.00;;
17614;SDS011;8926;49.720;6.576;2023-04-25T07:30:06;2.77;;;2.57;;
17614;SDS011;8926;49.720;6.576;2023-04-25T07:32:32;2.40;;;2.20;;
17614;SDS011;8926;49.720;6.576;2023-04-25T07:34:57;2.60;;;2.40;;
17614;SDS011;8926;49.720;6.576;2023-04-25T07:37:23;2.97;;;2.77;;
17614;SDS011;8926;49.720;6.576;2023-04-25T07:39:48;2.77;;;2.57;;
17614;SDS011;8926;49.720;6.576;2023-04-25T07:42:13;2.37;;;2.27;;
17614;SDS011;8926;49.720;6.576;2023-04-25T07:44:39;2.17;;;2.07;;
17614;SDS011;8926;49.720;6.576;2023-04-25T07:47:08;2.60;;;2.40;;
17614;SDS011;8926;49.720;6.576;2023-04-25T07:49:34;2.40;;;2.20;;
17614;SDS011;8926;49.720;6.576;2023-04-25T07:52:00;2.37;;;2.27;;
17614;SDS011;8926;49.720;6.576;2023-04-25T07:54:26;3.50;;;2.80;;
17614;SDS011;8926;49.720;6.576;2023-04-25T07:56:51;3.10;;;2.87;;
17614;SDS011;8926;49.720;6.576;2023-04-25T07:59:17;2.80;;;2.60;;
17614;SDS011;8926;49.720;6.576;2023-04-25T08:01:42;3.30;;;3.00;;
17614;SDS011;8926;49.720;6.576;2023-04-25T08:04:07;2.93;;;2.73;;
17614;SDS011;8926;49.720;6.576;2023-04-25T08:06:33;2.47;;;2.33;;
17614;SDS011;8926;49.720;6.576;2023-04-25T08:08:58;2.70;;;2.50;;
17614;SDS011;8926;49.720;6.576;2023-04-25T08:11:23;2.30;;;2.10;;
17614;SDS011;8926;49.720;6.576;2023-04-25T08:13:48;2.90;;;2.70;;
17614;SDS011;8926;49.720;6.576;2023-04-25T08:16:14;2.57;;;2.30;;
17614;SDS011;8926;49.720;6.576;2023-04-25T08:18:39;2.13;;;2.03;;
17614;SDS011;8926;49.720;6.576;2023-04-25T08:21:05;1.93;;;1.83;;
17614;SDS011;8926;49.720;6.576;2023-04-25T08:23:31;1.90;;;1.80;;
17614;SDS011;8926;49.720;6.576;2023-04-25T08:25:56;2.37;;;2.20;;
17614;SDS011;8926;49.720;6.576;2023-04-25T08:28:22;1.90;;;1.80;;
17614;SDS011;8926;49.720;6.576;2023-04-25T08:30:47;2.90;;;2.53;;
17614;SDS011;8926;49.720;6.576;2023-04-25T08:33:12;3.53;;;3.10;;
17614;SDS011;8926;49.720;6.576;2023-04-25T08:35:38;3.13;;;2.83;;
17614;SDS011;8926;49.720;6.576;2023-04-25T08:38:03;2.70;;;2.50;;
17614;SDS011;8926;49.720;6.576;2023-04-25T08:40:28;3.47;;;3.17;;
17614;SDS011;8926;49.720;6.576;2023-04-25T08:42:56;8.10;;;3.10;;
17614;SDS011;8926;49.720;6.576;2023-04-25T08:45:22;2.70;;;2.50;;
17614;SDS011;8926;49.720;6.576;2023-04-25T08:47:48;2.07;;;1.97;;
17614;SDS011;8926;49.720;6.576;2023-04-25T08:50:16;2.50;;;2.37;;
17614;SDS011;8926;49.720;6.576;2023-04-25T08:52:45;2.03;;;1.93;;
17614;SDS011;8926;49.720;6.576;2023-04-25T08:55:14;1.70;;;1.60;;
17614;SDS011;8926;49.720;6.576;2023-04-25T08:57:40;2.57;;;2.37;;
17614;SDS011;8926;49.720;6.576;2023-04-25T09:00:10;1.90;;;1.80;;
17614;SDS011;8926;49.720;6.576;2023-04-25T09:02:37;2.20;;;2.10;;
17614;SDS011;8926;49.720;6.576;2023-04-25T09:05:04;2.17;;;2.07;;
17614;SDS011;8926;49.720;6.576;2023-04-25T09:07:31;2.73;;;2.53;;
17614;SDS011;8926;49.720;6.576;2023-04-25T09:09:57;3.37;;;3.10;;
17614;SDS011;8926;49.720;6.576;2023-04-25T09:12:24;4.17;;;3.77;;
17614;SDS011;8926;49.720;6.576;2023-04-25T09:17:49;3.93;;;3.63;;
17614;SDS011;8926;49.720;6.576;2023-04-25T09:20:20;3.57;;;3.27;;
17614;SDS011;8926;49.720;6.576;2023-04-25T09:22:45;3.30;;;3.00;;
17614;SDS011;8926;49.720;6.576;2023-04-25T09:25:11;2.90;;;2.70;;
17614;SDS011;8926;49.720;6.576;2023-04-25T09:27:52;3.30;;;3.00;;
17614;SDS011;8926;49.720;6.576;2023-04-25T09:30:18;2.50;;;2.30;;
17614;SDS011;8926;49.720;6.576;2023-04-25T09:32:44;2.43;;;2.33;;
17614;SDS011;8926;49.720;6.576;2023-04-25T09:35:10;2.80;;;2.50;;
17614;SDS011;8926;49.720;6.576;2023-04-25T09:37:36;2.53;;;2.33;;
17614;SDS011;8926;49.720;6.576;2023-04-25T09:40:04;3.17;;;2.80;;
17614;SDS011;8926;49.720;6.576;2023-04-25T09:42:32;2.77;;;2.57;;
17614;SDS011;8926;49.720;6.576;2023-04-25T09:45:01;2.80;;;2.60;;
17614;SDS011;8926;49.720;6.576;2023-04-25T09:47:27;2.03;;;1.93;;
17614;SDS011;8926;49.720;6.576;2023-04-25T09:49:53;2.00;;;1.90;;
17614;SDS011;8926;49.720;6.576;2023-04-25T09:52:20;1.77;;;1.67;;
17614;SDS011;8926;49.720;6.576;2023-04-25T09:54:48;1.90;;;1.80;;
17614;SDS011;8926;49.720;6.576;2023-04-25T09:57:18;1.93;;;1.77;;
17614;SDS011;8926;49.720;6.576;2023-04-25T09:59:46;2.07;;;1.90;;
17614;SDS011;8926;49.720;6.576;2023-04-25T10:02:14;2.10;;;2.00;;
17614;SDS011;8926;49.720;6.576;2023-04-25T10:04:41;2.23;;;2.10;;
17614;SDS011;8926;49.720;6.576;2023-04-25T10:07:09;2.27;;;2.07;;
17614;SDS011;8926;49.720;6.576;2023-04-25T10:09:40;2.53;;;2.20;;
17614;SDS011;8926;49.720;6.576;2023-04-25T10:12:10;1.70;;;1.60;;
17614;SDS011;8926;49.720;6.576;2023-04-25T10:14:36;2.50;;;2.30;;
17614;SDS011;8926;49.720;6.576;2023-04-25T10:17:01;2.03;;;1.93;;
17614;SDS011;8926;49.720;6.576;2023-04-25T10:19:27;1.90;;;1.80;;
17614;SDS011;8926;49.720;6.576;2023-04-25T10:24:25;1.60;;;1.50;;
17614;SDS011;8926;49.720;6.576;2023-04-25T10:26:51;1.50;;;1.40;;
17614;SDS011;8926;49.720;6.576;2023-04-25T10:29:26;1.50;;;1.40;;
17614;SDS011;8926;49.720;6.576;2023-04-25T10:31:52;1.30;;;1.30;;
17614;SDS011;8926;49.720;6.576;2023-04-25T10:34:17;1.67;;;1.57;;
17614;SDS011;8926;49.720;6.576;2023-04-25T10:36:48;1.47;;;1.47;;
17614;SDS011;8926;49.720;6.576;2023-04-25T10:39:21;2.13;;;1.73;;
17614;SDS011;8926;49.720;6.576;2023-04-25T10:41:52;1.93;;;1.83;;
17614;SDS011;8926;49.720;6.576;2023-04-25T10:44:17;2.83;;;2.17;;
17614;SDS011;8926;49.720;6.576;2023-04-25T10:46:44;1.80;;;1.70;;
17614;SDS011;8926;49.720;6.576;2023-04-25T10:49:10;1.50;;;1.50;;
17614;SDS011;8926;49.720;6.576;2023-04-25T10:55:04;2.87;;;1.87;;
17614;SDS011;8926;49.720;6.576;2023-04-25T10:57:30;2.13;;;2.00;;
17614;SDS011;8926;49.720;6.576;2023-04-25T10:59:59;2.03;;;1.93;;
17614;SDS011;8926;49.720;6.576;2023-04-25T11:02:26;2.57;;;2.37;;
17614;SDS011;8926;49.720;6.576;2023-04-25T11:04:53;2.20;;;2.00;;
17614;SDS011;8926;49.720;6.576;2023-04-25T11:07:23;2.90;;;2.10;;
17614;SDS011;8926;49.720;6.576;2023-04-25T11:09:58;1.90;;;1.80;;
17614;SDS011;8926;49.720;6.576;2023-04-25T11:12:27;2.23;;;2.13;;
17614;SDS011;8926;49.720;6.576;2023-04-25T11:14:59;2.77;;;1.97;;
17614;SDS011;8926;49.720;6.576;2023-04-25T11:17:26;2.07;;;1.90;;
17614;SDS011;8926;49.720;6.576;2023-04-25T11:19:51;3.07;;;2.23;;
17614;SDS011;8926;49.720;6.576;2023-04-25T11:22:16;2.90;;;2.10;;
17614;SDS011;8926;49.720;6.576;2023-04-25T11:24:42;1.90;;;1.80;;
17614;SDS011;8926;49.720;6.576;2023-04-25T11:27:08;2.27;;;2.07;;
17614;SDS011;8926;49.720;6.576;2023-04-25T11:29:33;1.97;;;1.77;;
17614;SDS011;8926;49.720;6.576;2023-04-25T11:31:59;2.50;;;2.10;;
17614;SDS011;8926;49.720;6.576;2023-04-25T11:34:26;2.20;;;1.80;;
17614;SDS011;8926;49.720;6.576;2023-04-25T11:36:55;2.07;;;1.67;;
17614;SDS011;8926;49.720;6.576;2023-04-25T11:39:20;1.67;;;1.50;;
17614;SDS011;8926;49.720;6.576;2023-04-25T11:41:46;1.43;;;1.33;;
17614;SDS011;8926;49.720;6.576;2023-04-25T11:44:12;2.27;;;1.50;;
17614;SDS011;8926;49.720;6.576;2023-04-25T11:46:45;1.80;;;1.50;;
17614;SDS011;8926;49.720;6.576;2023-04-25T11:49:11;1.60;;;1.50;;
17614;SDS011;8926;49.720;6.576;2023-04-25T11:51:44;1.40;;;1.30;;
17614;SDS011;8926;49.720;6.576;2023-04-25T11:54:11;1.60;;;1.50;;
17614;SDS011;8926;49.720;6.576;2023-04-25T11:56:37;2.17;;;1.50;;
17614;SDS011;8926;49.720;6.576;2023-04-25T11:59:05;3.23;;;2.10;;
17614;SDS011;8926;49.720;6.576;2023-04-25T12:01:35;1.73;;;1.47;;
17614;SDS011;8926;49.720;6.576;2023-04-25T12:04:11;2.10;;;1.90;;
17614;SDS011;8926;49.720;6.576;2023-04-25T12:06:37;2.40;;;1.90;;
17614;SDS011;8926;49.720;6.576;2023-04-25T12:09:10;2.77;;;1.80;;
17614;SDS011;8926;49.720;6.576;2023-04-25T12:11:47;4.33;;;2.07;;
17614;SDS011;8926;49.720;6.576;2023-04-25T12:14:21;1.53;;;1.43;;
17614;SDS011;8926;49.720;6.576;2023-04-25T12:16:59;1.93;;;1.40;;
17614;SDS011;8926;49.720;6.576;2023-04-25T12:19:25;1.27;;;1.17;;
17614;SDS011;8926;49.720;6.576;2023-04-25T12:21:56;1.40;;;1.30;;
17614;SDS011;8926;49.720;6.576;2023-04-25T12:24:22;2.00;;;1.70;;
17614;SDS011;8926;49.720;6.576;2023-04-25T12:26:55;2.93;;;1.90;;
17614;SDS011;8926;49.720;6.576;2023-04-25T12:29:25;2.10;;;1.90;;
17614;SDS011;8926;49.720;6.576;2023-04-25T12:31:52;3.30;;;1.73;;
17614;SDS011;8926;49.720;6.576;2023-04-25T12:34:19;1.90;;;1.30;;
17614;SDS011;8926;49.720;6.576;2023-04-25T12:36:45;1.50;;;1.40;;
17614;SDS011;8926;49.720;6.576;2023-04-25T12:39:18;1.47;;;1.37;;
17614;SDS011;8926;49.720;6.576;2023-04-25T12:41:45;1.43;;;1.33;;
17614;SDS011;8926;49.720;6.576;2023-04-25T12:44:11;1.67;;;1.40;;
17614;SDS011;8926;49.720;6.576;2023-04-25T12:46:37;1.80;;;1.50;;
17614;SDS011;8926;49.720;6.576;2023-04-25T12:49:03;2.40;;;2.20;;
17614;SDS011;8926;49.720;6.576;2023-04-25T12:51:29;1.60;;;1.50;;
17614;SDS011;8926;49.720;6.576;2023-04-25T12:53:55;2.13;;;1.70;;
17614;SDS011;8926;49.720;6.576;2023-04-25T12:56:28;1.30;;;1.20;;
17614;SDS011;8926;49.720;6.576;2023-04-25T12:58:53;1.27;;;1.17;;
17614;SDS011;8926;49.720;6.576;2023-04-25T13:01:19;2.13;;;1.93;;
17614;SDS011;8926;49.720;6.576;2023-04-25T13:03:45;1.77;;;1.50;;
17614;SDS011;8926;49.720;6.576;2023-04-25T13:06:11;1.90;;;1.80;;
17614;SDS011;8926;49.720;6.576;2023-04-25T13:08:37;1.83;;;1.50;;
17614;SDS011;8926;49.720;6.576;2023-04-25T13:11:04;1.50;;;1.40;;
17614;SDS011;8926;49.720;6.576;2023-04-25T13:13:30;1.87;;;1.50;;
17614;SDS011;8926;49.720;6.576;2023-04-25T13:15:56;2.60;;;1.80;;
17614;SDS011;8926;49.720;6.576;2023-04-25T13:18:22;1.23;;;1.20;;
17614;SDS011;8926;49.720;6.576;2023-04-25T13:20:51;1.60;;;1.50;;
17614;SDS011;8926;49.720;6.576;2023-04-25T13:23:16;2.97;;;2.07;;
17614;SDS011;8926;49.720;6.576;2023-04-25T13:25:42;2.27;;;1.70;;
17614;SDS011;8926;49.720;6.576;2023-04-25T13:28:07;2.27;;;1.60;;
17614;SDS011;8926;49.720;6.576;2023-04-25T13:30:33;1.67;;;1.50;;
17614;SDS011;8926;49.720;6.576;2023-04-25T13:32:58;1.40;;;1.30;;
17614;SDS011;8926;49.720;6.576;2023-04-25T13:35:28;1.60;;;1.30;;
17614;SDS011;8926;49.720;6.576;2023-04-25T13:37:55;1.93;;;1.40;;
17614;SDS011;8926;49.720;6.576;2023-04-25T13:40:21;2.27;;;1.43;;
17614;SDS011;8926;49.720;6.576;2023-04-25T13:42:47;1.67;;;1.20;;
17614;SDS011;8926;49.720;6.576;2023-04-25T13:45:12;1.57;;;1.10;;
17614;SDS011;8926;49.720;6.576;2023-04-25T13:47:37;1.50;;;1.30;;
17614;SDS011;8926;49.720;6.576;2023-04-25T13:50:03;3.80;;;1.57;;
17614;SDS011;8926;49.720;6.576;2023-04-25T13:52:30;1.43;;;1.33;;
17614;SDS011;8926;49.720;6.576;2023-04-25T13:54:56;2.67;;;1.63;;
17614;SDS011;8926;49.720;6.576;2023-04-25T13:57:22;2.43;;;1.50;;
17614;SDS011;8926;49.720;6.576;2023-04-25T13:59:47;1.43;;;1.23;;
17614;SDS011;8926;49.720;6.576;2023-04-25T14:02:12;2.60;;;1.57;;
17614;SDS011;8926;49.720;6.576;2023-04-25T14:04:38;1.33;;;1.00;;
17614;SDS011;8926;49.720;6.576;2023-04-25T14:07:03;1.83;;;1.50;;
17614;SDS011;8926;49.720;6.576;2023-04-25T14:09:29;2.70;;;1.30;;
17614;SDS011;8926;49.720;6.576;2023-04-25T14:11:55;1.07;;;1.00;;
17614;SDS011;8926;49.720;6.576;2023-04-25T14:14:21;0.97;;;0.93;;
17614;SDS011;8926;49.720;6.576;2023-04-25T14:16:48;1.90;;;1.57;;
17614;SDS011;8926;49.720;6.576;2023-04-25T14:19:15;2.13;;;1.50;;
17614;SDS011;8926;49.720;6.576;2023-04-25T14:21:40;1.27;;;1.17;;
17614;SDS011;8926;49.720;6.576;2023-04-25T14:24:06;1.27;;;0.97;;
17614;SDS011;8926;49.720;6.576;2023-04-25T14:26:32;1.57;;;1.43;;
17614;SDS011;8926;49.720;6.576;2023-04-25T14:28:58;1.97;;;1.03;;
17614;SDS011;8926;49.720;6.576;2023-04-25T14:31:23;1.10;;;1.00;;
17614;SDS011;8926;49.720;6.576;2023-04-25T14:33:49;2.30;;;1.30;;
17614;SDS011;8926;49.720;6.576;2023-04-25T14:36:15;1.40;;;1.30;;
17614;SDS011;8926;49.720;6.576;2023-04-25T14:38:40;2.30;;;1.57;;
17614;SDS011;8926;49.720;6.576;2023-04-25T14:41:05;2.07;;;1.23;;
17614;SDS011;8926;49.720;6.576;2023-04-25T14:43:31;1.97;;;1.30;;
17614;SDS011;8926;49.720;6.576;2023-04-25T14:45:56;2.90;;;1.30;;
17614;SDS011;8926;49.720;6.576;2023-04-25T14:48:21;1.77;;;1.53;;
17614;SDS011;8926;49.720;6.576;2023-04-25T14:50:48;1.90;;;1.40;;
17614;SDS011;8926;49.720;6.576;2023-04-25T14:53:13;1.97;;;1.30;;
17614;SDS011;8926;49.720;6.576;2023-04-25T14:55:38;2.57;;;1.60;;
17614;SDS011;8926;49.720;6.576;2023-04-25T14:58:07;2.47;;;1.10;;
17614;SDS011;8926;49.720;6.576;2023-04-25T15:00:32;1.27;;;0.90;;
17614;SDS011;8926;49.720;6.576;2023-04-25T15:02:58;1.13;;;0.97;;